Burlington, IA

5:30 PM CST on January 18, 2017 (GMT -0600)
Spirit Hollow Golf Course | | Change Station
Active Advisory: Flood Warning

Elev 646 ft 40.76 °N, 91.14 °W | Updated 33 seconds ago

Clear
Clear
38.5 °F
Feels Like 35 °F
N
4.9
Wind Variable Wind from SE
Gusts 7.0 mph

Today
High -- | Low -- °F
--% Chance of Precip.
Yesterday
High -- | Low -- °F
Precip. -- in
Pressure 30.06 in
Visibility 10.0 miles
Clouds Clear
Windchill 35 °F
Dew Point 37 °F
Humidity 90%
Rainfall 0.00 in
Snow Depth Not available.
7:25 AM 5:05 PM
Waning Gibbous, 59% visible
METAR KBRL 182253Z AUTO 20008KT 10SM CLR 04/02 A3004 RMK AO2 SLP180 T00440022
Pressure 30.06 in
Visibility 10.0 miles
Clouds Clear
Windchill 35 °F
Dew Point 37 °F
Humidity 90%
Rainfall 0.00 in
Snow Depth Not available.
7:25 AM 5:05 PM
Waning Gibbous, 59% visible
METAR KBRL 182253Z AUTO 20008KT 10SM CLR 04/02 A3004 RMK AO2 SLP180 T00440022

Get Your Daily Forecast Email!

Thanks for signing up!

Be on the lookout for a verification email in your inbox.

You'll start receiving the daily forecast at 8 AM.

×

10-Day Weather Forecast

Almanac

Astronomy

Jan. 18, 2017 Rise Set
Actual Time
Civil Twilight
Nautical Twilight
Astronomical Twilight
Moon
Length of Visible Light
Length of Day
Tomorrow will be .
, % of the Moon is Illuminated

Today's Extremes

State Highs State Lows

Community

WunderPhotos

Upload Photos

1,962,540 photos uploaded!

WunderBlog® & News

Nearby

Air Quality

  Air Quality AQ Index Pollutant
Not available.

Snow Depth

Station Depth Elevation

Earthquake Activity

City Distance Mag. Time & Date
Minimum magnitude displayed is 2.5.

Coastal Water Temperatures

Place Temperature

Stations

Nearby Weather Stations

Station Location Temp. Windchill Dew Point Humidity Wind Precip. Elev Updated Type
                   

Watches & Warnings

Flood Warning
Issued: 10:40 AM CST Jan. 18, 2017 – National Weather Service

... Flood Warning now in effect until further notice...

The Flood Warning continues for
the Mississippi River at Burlington.
* Until further notice.
* At 10:00 am Wednesday the stage was 17.5 feet... and rising.
* Flood stage is 15.0 feet.
* Moderate flooding is occurring and is forecast to continue.
* Forecast... rise to 17.8 feet Thursday morning... then begin falling.
* Impact... at 17.5 feet... water affects Riverview drive in Riverview
Park in Fort Madison.


Lat... Lon 4086 9110 4067 9118 4061 9142 4062 9108
      4084 9105


12



1040 am CST Wed Jan 18 2017

... Flood Warning now in effect until further notice...

The Flood Warning continues for
the Mississippi River at Gladstone ld18.
* Until further notice.
* At 10:00 am Wednesday the stage was 12.6 feet... and rising.
* Flood stage is 10.0 feet.
* Moderate flooding is occurring and is forecast to continue.
* Forecast... rise to 13.3 feet Friday morning... then begin falling.


Lat... Lon 4086 9110 4084 9105 4091 9094 4094 9099